Time;durP1;ratioP1;P1;durP2;ratioP2;P2;SDS_P1;SDS_P2;PMS_P1;PMS_P2;Temp;Humidity;BMP_temperature;BMP_pressure;BME280_temperature;BME280_humidity;BME280_pressure;Samples;Min_cycle;Max_cycle;Signal;HPM_P1;HPM_P2
2024/01/02 00:00:20;;;;;;;35.30;6.50;;;;;;;7.03;100.00;100104.78;5097415;27;20043;-73
2024/01/02 00:02:46;;;;;;;36.97;6.25;;;;;;;7.04;100.00;100087.06;5095566;27;20040;-74
2024/01/02 00:05:11;;;;;;;25.83;5.72;;;;;;;6.91;100.00;100086.94;5105973;27;20645;-74
2024/01/02 00:07:37;;;;;;;38.00;7.22;;;;;;;6.97;100.00;100094.53;5099565;27;20031;-74
2024/01/02 00:10:02;;;;;;;34.25;6.43;;;;;;;7.03;100.00;100095.94;5098279;27;20604;-74
2024/01/02 00:12:28;;;;;;;26.08;6.03;;;;;;;7.08;100.00;100089.44;5078237;28;20172;-74
2024/01/02 00:14:53;;;;;;;26.35;6.40;;;;;;;7.02;100.00;100065.94;5092432;27;20055;-74
2024/01/02 00:17:19;;;;;;;30.35;6.25;;;;;;;6.89;100.00;100055.25;5096098;27;20544;-74
2024/01/02 00:19:44;;;;;;;33.85;6.22;;;;;;;6.96;100.00;100061.03;5095323;27;20044;-74
2024/01/02 00:22:10;;;;;;;26.20;6.32;;;;;;;6.99;100.00;100053.75;5098422;27;20036;-74
2024/01/02 00:24:35;;;;;;;30.27;6.07;;;;;;;6.99;100.00;100058.19;5101802;27;20040;-74
2024/01/02 00:27:02;;;;;;;30.15;6.22;;;;;;;6.97;100.00;100045.00;5101522;27;20023;-74
2024/01/02 00:29:28;;;;;;;28.25;6.03;;;;;;;6.96;100.00;100043.31;5091001;27;20039;-74
2024/01/02 00:31:53;;;;;;;25.05;6.18;;;;;;;7.00;100.00;100036.88;5062616;28;20815;-73
2024/01/02 00:34:19;;;;;;;25.92;6.25;;;;;;;6.99;100.00;100026.38;5099169;27;20032;-74
2024/01/02 00:36:44;;;;;;;23.48;6.40;;;;;;;6.98;100.00;100022.88;5091624;28;20063;-73
2024/01/02 00:39:10;;;;;;;32.45;5.97;;;;;;;7.01;100.00;100019.19;5090893;28;20066;-74
2024/01/02 00:41:36;;;;;;;32.85;6.15;;;;;;;7.02;100.00;100015.56;5105447;27;20094;-73
2024/01/02 00:44:02;;;;;;;32.65;6.50;;;;;;;7.08;100.00;100001.97;5064443;27;20036;-74
2024/01/02 00:46:27;;;;;;;25.70;5.30;;;;;;;7.03;100.00;99985.50;5083609;27;20077;-74
2024/01/02 00:48:53;;;;;;;22.75;5.90;;;;;;;6.99;100.00;99976.88;5088758;27;20135;-74
2024/01/02 00:51:18;;;;;;;21.17;4.95;;;;;;;6.97;100.00;99972.59;5106853;27;20040;-74
2024/01/02 00:53:44;;;;;;;26.30;5.70;;;;;;;7.07;100.00;99964.94;5082565;27;20053;-73
2024/01/02 00:56:09;;;;;;;29.00;5.22;;;;;;;7.07;100.00;99947.22;5084926;27;20036;-74
2024/01/02 00:58:35;;;;;;;21.65;4.72;;;;;;;7.09;100.00;99937.41;5092492;28;20032;-74
2024/01/02 01:01:01;;;;;;;23.23;5.22;;;;;;;7.08;100.00;99933.03;5093492;27;20028;-74
2024/01/02 01:03:26;;;;;;;26.75;5.38;;;;;;;6.89;100.00;99916.59;5077262;28;20040;-73
2024/01/02 01:05:52;;;;;;;19.05;5.13;;;;;;;7.00;100.00;99917.63;5097457;27;20064;-74
2024/01/02 01:08:18;;;;;;;20.10;4.75;;;;;;;7.08;100.00;99924.22;5084736;27;20039;-74
2024/01/02 01:10:43;;;;;;;24.05;5.57;;;;;;;7.10;100.00;99901.97;5095133;27;20040;-74
2024/01/02 01:13:09;;;;;;;23.92;4.43;;;;;;;7.15;100.00;99891.94;5090842;27;20040;-74
2024/01/02 01:15:34;;;;;;;19.98;5.68;;;;;;;7.14;100.00;99889.38;5112088;27;20464;-74
2024/01/02 01:18:00;;;;;;;25.08;5.47;;;;;;;7.13;100.00;99877.94;5097713;27;20058;-74
2024/01/02 01:20:26;;;;;;;28.05;5.95;;;;;;;7.12;100.00;99862.09;5103250;27;21217;-74
2024/01/02 01:22:51;;;;;;;24.02;4.53;;;;;;;6.97;100.00;99854.19;5100403;27;20036;-74
2024/01/02 01:25:17;;;;;;;24.38;5.22;;;;;;;7.06;100.00;99846.59;5099252;27;20156;-74
2024/01/02 01:27:43;;;;;;;19.55;4.53;;;;;;;7.13;100.00;99835.53;5100364;27;20048;-74
2024/01/02 01:30:09;;;;;;;19.05;3.63;;;;;;;7.03;100.00;99810.56;5098422;27;20062;-74
2024/01/02 01:32:34;;;;;;;24.40;4.38;;;;;;;7.05;100.00;99813.94;5109453;27;20142;-74
2024/01/02 01:35:00;;;;;;;22.60;4.40;;;;;;;7.12;100.00;99809.09;5105519;27;20032;-73
2024/01/02 01:37:26;;;;;;;17.17;3.95;;;;;;;7.08;100.00;99805.81;5088960;27;20043;-74
2024/01/02 01:39:51;;;;;;;19.90;4.90;;;;;;;7.08;100.00;99787.25;5104641;27;20028;-74
2024/01/02 01:42:17;;;;;;;17.50;3.92;;;;;;;7.16;100.00;99770.81;5081789;28;20040;-73
2024/01/02 01:44:42;;;;;;;19.45;3.85;;;;;;;7.17;100.00;99761.91;5100439;27;20764;-74
2024/01/02 01:47:08;;;;;;;19.17;3.47;;;;;;;7.14;100.00;99765.63;5101785;27;20028;-74
2024/01/02 01:49:34;;;;;;;18.80;4.00;;;;;;;7.15;100.00;99750.56;5068838;27;20031;-74
2024/01/02 01:52:00;;;;;;;16.35;3.28;;;;;;;7.18;100.00;99732.66;5114509;27;20029;-74
2024/01/02 01:54:27;;;;;;;13.52;3.53;;;;;;;7.19;100.00;99728.22;5104290;27;20050;-74
2024/01/02 01:56:53;;;;;;;17.05;3.67;;;;;;;7.12;100.00;99726.91;5097843;28;20044;-74
2024/01/02 01:59:19;;;;;;;12.20;3.13;;;;;;;7.21;100.00;99719.19;5076477;28;20044;-73
2024/01/02 02:01:46;;;;;;;10.23;2.80;;;;;;;7.16;100.00;99708.03;5097971;28;20036;-74
2024/01/02 02:04:13;;;;;;;21.25;3.70;;;;;;;7.19;100.00;99696.41;5082946;28;20035;-73
2024/01/02 02:06:39;;;;;;;22.73;3.67;;;;;;;7.16;100.00;99686.84;5084626;27;20043;-73
2024/01/02 02:09:04;;;;;;;18.65;2.95;;;;;;;7.12;100.00;99680.03;5090400;27;20039;-73
2024/01/02 02:11:30;;;;;;;21.05;3.78;;;;;;;7.16;100.00;99668.28;5117805;27;20035;-73
2024/01/02 02:13:56;;;;;;;10.25;3.83;;;;;;;7.18;100.00;99660.25;5105553;27;20039;-74
2024/01/02 02:16:21;;;;;;;10.32;2.60;;;;;;;7.08;100.00;99654.72;5110737;27;20028;-73
2024/01/02 02:18:47;;;;;;;9.55;2.95;;;;;;;7.07;100.00;99652.16;5108337;28;20036;-73
2024/01/02 02:21:12;;;;;;;13.35;2.78;;;;;;;7.09;100.00;99645.81;5117297;27;20492;-73
2024/01/02 02:23:38;;;;;;;9.40;2.58;;;;;;;7.08;100.00;99632.63;5099137;27;20076;-73
2024/01/02 02:26:03;;;;;;;13.18;2.28;;;;;;;6.98;100.00;99628.00;5123170;27;20043;-73
2024/01/02 02:28:30;;;;;;;13.18;2.88;;;;;;;7.05;100.00;99617.81;5103934;27;20043;-73
2024/01/02 02:30:55;;;;;;;11.98;2.60;;;;;;;7.13;100.00;99611.97;5094742;27;20083;-74
2024/01/02 02:33:21;;;;;;;5.55;2.30;;;;;;;7.21;100.00;99602.53;5116149;27;20035;-73
2024/01/02 02:35:46;;;;;;;10.23;2.78;;;;;;;7.14;100.00;99592.47;5124440;27;20043;-74
2024/01/02 02:38:12;;;;;;;8.95;2.97;;;;;;;7.13;100.00;99580.16;5096538;28;20036;-73
2024/01/02 02:40:38;;;;;;;7.47;2.38;;;;;;;7.11;100.00;99577.63;5098003;27;20044;-73
2024/01/02 02:43:04;;;;;;;7.22;2.42;;;;;;;7.07;100.00;99554.09;5122977;27;20058;-74
2024/01/02 02:45:29;;;;;;;11.68;2.15;;;;;;;7.26;100.00;99550.03;5097849;28;20044;-73
2024/01/02 02:47:55;;;;;;;8.18;2.13;;;;;;;7.30;100.00;99542.72;5114953;28;20073;-74
2024/01/02 02:50:20;;;;;;;4.53;1.58;;;;;;;7.23;100.00;99544.13;5121841;27;20040;-74
2024/01/02 02:52:46;;;;;;;6.32;1.88;;;;;;;7.30;100.00;99528.63;5118342;28;20043;-74
2024/01/02 02:55:11;;;;;;;5.20;2.13;;;;;;;7.27;100.00;99519.06;5114464;28;20179;-74
2024/01/02 02:57:37;;;;;;;5.93;1.80;;;;;;;7.28;100.00;99512.84;5116960;28;21771;-74
2024/01/02 03:00:04;;;;;;;5.30;1.70;;;;;;;7.26;100.00;99510.28;5114229;28;20036;-73
2024/01/02 03:02:30;;;;;;;4.38;1.50;;;;;;;7.23;100.00;99499.91;5105329;28;20035;-74
2024/01/02 03:04:56;;;;;;;2.17;1.58;;;;;;;7.28;100.00;99496.94;5108303;27;20032;-74
2024/01/02 03:07:21;;;;;;;5.70;2.33;;;;;;;7.18;100.00;99487.94;5099962;28;20305;-74
2024/01/02 03:09:47;;;;;;;8.35;2.00;;;;;;;7.32;100.00;99481.63;5114743;28;20901;-74
2024/01/02 03:12:12;;;;;;;6.05;1.92;;;;;;;7.31;100.00;99472.81;5119871;27;20028;-74
2024/01/02 03:14:38;;;;;;;4.95;2.20;;;;;;;7.29;100.00;99468.59;5115952;27;20059;-74
2024/01/02 03:17:04;;;;;;;7.20;2.30;;;;;;;7.33;100.00;99454.13;5092892;27;20039;-74
2024/01/02 03:19:30;;;;;;;9.60;2.60;;;;;;;7.36;100.00;99444.16;5101790;28;20456;-74
2024/01/02 03:21:56;;;;;;;4.93;1.85;;;;;;;7.35;100.00;99431.88;5086490;27;20052;-74
2024/01/02 03:24:22;;;;;;;4.63;2.35;;;;;;;7.40;100.00;99421.78;5117317;27;20553;-75
2024/01/02 03:26:47;;;;;;;4.20;2.25;;;;;;;7.26;100.00;99412.16;5112656;27;20067;-74
2024/01/02 03:29:13;;;;;;;5.85;2.33;;;;;;;7.29;100.00;99405.81;5105971;27;20035;-74
2024/01/02 03:31:41;;;;;;;3.70;1.67;;;;;;;7.29;100.00;99392.56;5105986;27;20040;-74
2024/01/02 03:34:07;;;;;;;5.80;2.13;;;;;;;7.20;100.00;99374.66;5078769;28;20036;-74
2024/01/02 03:36:32;;;;;;;7.63;2.25;;;;;;;7.38;100.00;99372.44;5098608;28;20036;-74
2024/01/02 03:38:58;;;;;;;7.05;2.05;;;;;;;7.32;100.00;99370.25;5109303;27;20119;-74
2024/01/02 03:41:23;;;;;;;4.68;1.92;;;;;;;7.26;100.00;99345.88;5107661;27;20098;-74
2024/01/02 03:43:49;;;;;;;8.43;2.42;;;;;;;7.30;100.00;99335.91;5088596;27;20043;-74
2024/01/02 03:46:14;;;;;;;8.27;2.25;;;;;;;7.21;100.00;99320.69;5098458;27;20036;-73
2024/01/02 03:48:40;;;;;;;3.58;2.03;;;;;;;7.27;100.00;99317.56;5096817;27;20497;-75
2024/01/02 03:51:05;;;;;;;4.70;2.15;;;;;;;7.31;100.00;99295.19;5101477;27;20393;-74
2024/01/02 03:53:31;;;;;;;5.90;1.92;;;;;;;7.35;100.00;99304.59;5097146;27;20819;-74
2024/01/02 03:55:57;;;;;;;5.22;2.25;;;;;;;7.40;100.00;99281.22;5100886;27;20560;-73
2024/01/02 03:58:23;;;;;;;4.85;2.40;;;;;;;7.37;100.00;99280.59;5103396;27;20024;-75
2024/01/02 04:00:53;;;;;;;7.05;2.45;;;;;;;7.37;100.00;99285.91;5102276;27;20456;-74
2024/01/02 04:03:19;;;;;;;3.33;2.00;;;;;;;7.36;100.00;99252.41;5093866;27;20134;-74
2024/01/02 04:05:45;;;;;;;2.53;1.90;;;;;;;7.44;100.00;99247.38;5091203;27;20054;-74
2024/01/02 04:08:11;;;;;;;2.55;2.10;;;;;;;7.42;100.00;99225.41;5090133;28;20055;-74
2024/01/02 04:10:38;;;;;;;3.63;1.98;;;;;;;7.33;100.00;99232.28;5077088;27;20062;-74
2024/01/02 04:13:04;;;;;;;2.78;2.00;;;;;;;7.43;100.00;99227.09;5101126;27;20038;-74
2024/01/02 04:15:30;;;;;;;4.00;2.05;;;;;;;7.42;100.00;99230.72;5105986;27;20040;-74
2024/01/02 04:17:55;;;;;;;2.00;1.70;;;;;;;7.36;100.00;99216.13;5102048;27;20036;-74
2024/01/02 04:20:21;;;;;;;2.78;1.90;;;;;;;7.42;100.00;99231.56;5090663;27;20067;-74
2024/01/02 04:22:46;;;;;;;2.03;1.83;;;;;;;7.36;100.00;99226.72;5071129;28;20041;-73
2024/01/02 04:25:15;;;;;;;2.75;1.90;;;;;;;7.29;100.00;99164.53;5096944;27;20039;-74
2024/01/02 04:27:40;;;;;;;3.03;2.03;;;;;;;7.30;100.00;99190.09;5096607;27;20047;-74
2024/01/02 04:30:07;;;;;;;3.53;1.80;;;;;;;7.45;100.00;99214.59;5094907;27;20044;-74
2024/01/02 04:32:32;;;;;;;2.95;1.65;;;;;;;7.39;100.00;99215.91;5096799;27;20576;-74
2024/01/02 04:34:58;;;;;;;1.70;1.42;;;;;;;7.46;100.00;99210.97;5100005;27;28205;-74
2024/01/02 04:37:24;;;;;;;1.75;1.45;;;;;;;7.44;100.00;99208.44;5089840;28;20044;-74
2024/01/02 04:39:49;;;;;;;3.35;1.70;;;;;;;7.40;100.00;99192.88;5095033;27;20039;-75
2024/01/02 04:42:15;;;;;;;1.98;1.77;;;;;;;7.37;100.00;99177.19;5098285;27;20043;-74
2024/01/02 04:44:40;;;;;;;2.65;1.73;;;;;;;7.46;100.00;99185.28;5097652;27;20040;-74
2024/01/02 04:47:06;;;;;;;5.03;1.58;;;;;;;7.47;100.00;99184.31;5080564;27;20325;-74
2024/01/02 04:49:31;;;;;;;2.00;1.80;;;;;;;7.50;100.00;99184.09;5079933;27;20035;-73
2024/01/02 04:51:57;;;;;;;2.13;1.58;;;;;;;7.62;100.00;99194.72;5084065;28;20531;-74
2024/01/02 04:54:23;;;;;;;2.47;1.65;;;;;;;7.55;100.00;99175.78;5095041;27;20178;-73
2024/01/02 04:56:48;;;;;;;2.17;1.33;;;;;;;7.58;100.00;99180.00;5100875;27;20045;-74
2024/01/02 04:59:14;;;;;;;1.65;1.50;;;;;;;7.59;100.00;99176.41;5080450;28;20024;-74
2024/01/02 05:01:39;;;;;;;3.80;1.65;;;;;;;7.52;100.00;99168.91;5095431;27;20482;-73
2024/01/02 05:04:05;;;;;;;2.95;1.90;;;;;;;7.57;100.00;99146.47;5102178;27;20528;-74
2024/01/02 05:06:30;;;;;;;2.58;2.30;;;;;;;7.62;100.00;99142.50;5076068;28;20042;-74
2024/01/02 05:08:56;;;;;;;2.83;2.13;;;;;;;7.68;100.00;99143.81;5093094;27;20036;-73
2024/01/02 05:11:22;;;;;;;3.22;2.20;;;;;;;7.74;100.00;99157.47;5079451;27;20498;-74
2024/01/02 05:13:48;;;;;;;3.20;2.55;;;;;;;7.75;100.00;99169.75;5094298;27;20238;-73
2024/01/02 05:16:14;;;;;;;3.00;2.53;;;;;;;7.69;100.00;99174.72;5055650;28;20886;-74
2024/01/02 05:18:39;;;;;;;3.97;2.50;;;;;;;7.74;100.00;99170.75;5098146;27;20050;-74
2024/01/02 05:21:07;;;;;;;2.55;2.22;;;;;;;7.73;100.00;99165.53;5101881;27;20028;-74
2024/01/02 05:23:33;;;;;;;3.53;2.20;;;;;;;7.88;100.00;99153.72;5090644;27;20115;-74
2024/01/02 05:25:58;;;;;;;2.50;2.30;;;;;;;7.86;100.00;99149.50;5097708;27;20044;-74
2024/01/02 05:28:24;;;;;;;2.03;1.83;;;;;;;7.81;100.00;99128.63;5093973;27;21115;-74
2024/01/02 05:30:49;;;;;;;1.75;1.65;;;;;;;7.95;100.00;99144.31;5096216;27;20071;-74
2024/01/02 05:33:15;;;;;;;1.75;1.55;;;;;;;7.99;100.00;99152.88;5096943;27;20374;-74
2024/01/02 05:35:40;;;;;;;1.75;1.63;;;;;;;8.08;100.00;99154.78;5096926;27;20036;-74
2024/01/02 05:38:06;;;;;;;2.08;1.70;;;;;;;8.09;100.00;99137.91;5071042;28;21007;-74
2024/01/02 05:40:32;;;;;;;2.33;2.10;;;;;;;8.15;100.00;99144.53;5094127;27;20769;-74
2024/01/02 05:42:58;;;;;;;2.08;1.88;;;;;;;8.20;100.00;99152.97;5102506;27;20036;-73
2024/01/02 05:45:23;;;;;;;2.50;1.88;;;;;;;8.27;100.00;99170.06;5096339;27;20062;-74
2024/01/02 05:47:49;;;;;;;2.35;2.15;;;;;;;8.25;100.00;99161.41;5092576;27;20801;-74
2024/01/02 05:50:14;;;;;;;2.63;2.42;;;;;;;8.32;100.00;99167.88;5104057;27;20035;-74
2024/01/02 05:52:42;;;;;;;4.13;3.05;;;;;;;8.32;100.00;99158.09;5091774;27;20035;-74
2024/01/02 05:55:08;;;;;;;4.15;3.05;;;;;;;8.39;100.00;99150.53;5104598;27;20078;-74
2024/01/02 05:57:33;;;;;;;4.28;3.28;;;;;;;8.46;100.00;99154.38;5103104;27;20038;-73
2024/01/02 05:59:59;;;;;;;6.95;3.67;;;;;;;8.39;100.00;99165.63;5099333;27;20770;-73
2024/01/02 06:02:24;;;;;;;7.25;3.83;;;;;;;8.40;100.00;99173.47;5104694;27;20697;-74
2024/01/02 06:04:50;;;;;;;6.40;4.25;;;;;;;8.49;100.00;99179.84;5096461;27;20077;-74
2024/01/02 06:07:15;;;;;;;7.60;4.53;;;;;;;8.55;100.00;99177.53;5104918;27;20479;-74
2024/01/02 06:09:41;;;;;;;7.65;5.15;;;;;;;8.65;100.00;99176.78;5097229;27;20039;-74
2024/01/02 06:12:08;;;;;;;9.65;6.25;;;;;;;8.64;100.00;99180.41;5100099;27;20036;-74
2024/01/02 06:14:34;;;;;;;11.43;6.97;;;;;;;8.72;100.00;99196.53;5098646;27;20946;-73
2024/01/02 06:16:59;;;;;;;10.15;6.35;;;;;;;8.73;100.00;99180.47;5098062;27;20047;-73
2024/01/02 06:19:25;;;;;;;10.60;5.10;;;;;;;8.82;100.00;99184.19;5097816;27;20043;-73
2024/01/02 06:21:51;;;;;;;5.90;4.05;;;;;;;8.86;100.00;99201.56;5097141;27;20039;-74
2024/01/02 06:24:17;;;;;;;5.63;3.65;;;;;;;8.85;100.00;99197.22;5088045;27;20580;-74
2024/01/02 06:26:42;;;;;;;4.93;3.63;;;;;;;9.01;100.00;99204.78;5099851;27;20681;-73
2024/01/02 06:29:08;;;;;;;6.35;3.60;;;;;;;9.06;100.00;99210.56;5095366;27;20097;-73
2024/01/02 06:31:33;;;;;;;7.00;3.92;;;;;;;9.10;100.00;99214.66;5099030;27;20036;-74
2024/01/02 06:33:59;;;;;;;6.00;3.35;;;;;;;9.10;100.00;99219.97;5093448;28;20702;-74
2024/01/02 06:36:24;;;;;;;5.03;3.75;;;;;;;9.16;100.00;99213.28;5102791;27;20595;-74
2024/01/02 06:38:50;;;;;;;6.05;3.75;;;;;;;9.19;100.00;99226.34;5104677;27;20398;-74
2024/01/02 06:41:16;;;;;;;4.40;3.35;;;;;;;9.27;100.00;99227.38;5097969;27;20032;-74
2024/01/02 06:43:41;;;;;;;5.43;3.70;;;;;;;9.32;100.00;99224.31;5078633;27;20660;-74
2024/01/02 06:46:07;;;;;;;4.53;3.08;;;;;;;9.42;100.00;99221.72;5108790;27;20511;-74
2024/01/02 06:48:32;;;;;;;4.30;3.15;;;;;;;9.48;100.00;99239.81;5097389;28;20707;-74
2024/01/02 06:50:58;;;;;;;4.70;3.38;;;;;;;9.57;100.00;99244.38;5113298;27;20567;-75
2024/01/02 06:53:24;;;;;;;5.55;3.50;;;;;;;9.58;100.00;99264.69;5103683;27;20071;-74
2024/01/02 06:55:49;;;;;;;5.00;3.90;;;;;;;9.69;100.00;99258.44;5107111;27;20056;-73
2024/01/02 06:58:14;;;;;;;4.57;3.42;;;;;;;9.73;100.00;99254.56;5088605;27;20346;-74
2024/01/02 07:00:40;;;;;;;5.75;3.78;;;;;;;9.78;100.00;99265.66;5100266;27;20055;-74
2024/01/02 07:03:05;;;;;;;9.35;4.55;;;;;;;9.90;100.00;99275.28;5067199;28;20036;-74
2024/01/02 07:05:31;;;;;;;10.77;5.20;;;;;;;9.98;100.00;99266.59;5104683;27;20039;-74
2024/01/02 07:07:57;;;;;;;10.57;5.65;;;;;;;10.04;100.00;99284.72;5090448;27;20136;-74
2024/01/02 07:10:24;;;;;;;11.82;6.70;;;;;;;10.10;100.00;99287.72;5089374;27;20036;-74
2024/01/02 07:12:50;;;;;;;11.45;7.20;;;;;;;10.08;100.00;99291.47;5094246;27;20080;-74
2024/01/02 07:15:16;;;;;;;12.32;6.78;;;;;;;10.11;100.00;99289.38;5113804;27;20944;-74
2024/01/02 07:17:42;;;;;;;15.95;7.55;;;;;;;10.18;100.00;99294.19;5116476;27;20040;-74
2024/01/02 07:20:08;;;;;;;17.00;8.40;;;;;;;10.18;100.00;99295.03;5111984;27;20438;-73
2024/01/02 07:22:34;;;;;;;19.85;9.27;;;;;;;10.26;100.00;99289.06;5094010;28;20052;-74
2024/01/02 07:24:59;;;;;;;16.92;9.63;;;;;;;10.28;100.00;99295.94;5112012;28;20047;-74
2024/01/02 07:27:25;;;;;;;16.38;9.55;;;;;;;10.32;100.00;99296.53;5111086;28;20032;-74
2024/01/02 07:29:51;;;;;;;21.67;9.93;;;;;;;10.30;100.00;99299.34;5115015;27;20071;-75
2024/01/02 07:32:16;;;;;;;16.45;9.20;;;;;;;10.36;100.00;99295.28;5118794;27;20027;-74
2024/01/02 07:34:42;;;;;;;23.67;9.95;;;;;;;10.43;100.00;99290.25;5114599;27;20039;-74
2024/01/02 07:37:08;;;;;;;30.70;12.10;;;;;;;10.46;100.00;99311.31;5096477;27;20702;-74
2024/01/02 07:39:34;;;;;;;24.55;9.88;;;;;;;10.46;100.00;99304.16;5108704;27;20032;-73
2024/01/02 07:42:00;;;;;;;19.60;10.40;;;;;;;10.47;100.00;99305.84;5117510;28;20032;-74
2024/01/02 07:44:27;;;;;;;24.00;10.63;;;;;;;10.54;100.00;99301.69;5100673;28;20039;-74
2024/01/02 07:46:53;;;;;;;23.90;10.40;;;;;;;10.56;100.00;99302.38;5101679;28;20036;-74
2024/01/02 07:49:18;;;;;;;22.50;10.52;;;;;;;10.56;100.00;99296.22;5117456;27;20036;-73
2024/01/02 07:51:44;;;;;;;21.55;11.18;;;;;;;10.58;100.00;99303.06;5129060;27;20027;-74
2024/01/02 07:54:09;;;;;;;25.23;10.95;;;;;;;10.59;100.00;99315.44;5120987;27;20046;-73
2024/01/02 07:56:35;;;;;;;27.15;12.88;;;;;;;10.60;100.00;99321.63;5113587;28;20063;-74
2024/01/02 07:59:00;;;;;;;27.58;11.68;;;;;;;10.61;100.00;99317.97;5090478;28;20099;-74
2024/01/02 08:01:27;;;;;;;27.05;12.27;;;;;;;10.65;100.00;99321.22;5112412;27;20024;-74
2024/01/02 08:03:52;;;;;;;25.02;11.25;;;;;;;10.70;100.00;99330.50;5110417;27;20032;-73
2024/01/02 08:06:18;;;;;;;28.70;13.10;;;;;;;10.69;100.00;99334.09;5076024;28;20155;-74
2024/01/02 08:08:43;;;;;;;32.85;12.27;;;;;;;10.72;100.00;99328.53;5111501;27;20790;-74
2024/01/02 08:11:09;;;;;;;32.55;12.23;;;;;;;10.74;100.00;99326.56;5102857;28;20086;-74
2024/01/02 08:13:35;;;;;;;35.10;12.93;;;;;;;10.74;100.00;99318.56;5106606;27;20227;-74
2024/01/02 08:16:03;;;;;;;41.78;11.43;;;;;;;10.77;100.00;99323.63;5109531;27;20071;-74
2024/01/02 08:18:39;;;;;;;29.52;10.40;;;;;;;10.78;100.00;99330.63;5105602;27;20440;-74
2024/01/02 08:21:07;;;;;;;40.58;11.40;;;;;;;10.82;100.00;99325.88;5090918;27;20028;-74
2024/01/02 08:23:33;;;;;;;37.33;12.93;;;;;;;10.83;100.00;99322.22;5097477;27;20043;-74
2024/01/02 08:25:58;;;;;;;36.05;11.02;;;;;;;10.83;100.00;99311.56;5095210;27;20051;-74
2024/01/02 08:28:24;;;;;;;44.10;11.80;;;;;;;10.88;100.00;99317.34;5095558;27;20050;-74
2024/01/02 08:30:49;;;;;;;39.35;11.07;;;;;;;10.95;100.00;99317.66;5083940;27;20379;-74
2024/01/02 08:33:15;;;;;;;35.38;10.77;;;;;;;10.96;100.00;99298.84;5098617;27;20090;-74
2024/01/02 08:35:40;;;;;;;32.50;10.82;;;;;;;10.99;100.00;99300.38;5099291;27;20144;-74
2024/01/02 08:38:06;;;;;;;46.72;12.23;;;;;;;11.01;100.00;99295.75;5092768;27;20044;-74
2024/01/02 08:40:31;;;;;;;32.35;10.38;;;;;;;11.06;100.00;99301.53;5091519;27;20035;-74
2024/01/02 08:42:57;;;;;;;36.35;8.80;;;;;;;11.13;100.00;99298.16;5098983;27;20725;-74
2024/01/02 08:45:22;;;;;;;40.90;9.57;;;;;;;11.10;100.00;99295.78;5097184;27;20642;-73
2024/01/02 08:47:48;;;;;;;42.45;9.85;;;;;;;11.20;100.00;99293.13;5083454;27;20032;-74
2024/01/02 08:50:13;;;;;;;37.28;9.55;;;;;;;11.22;100.00;99301.81;5090369;27;20034;-74
2024/01/02 08:52:39;;;;;;;37.50;10.15;;;;;;;11.19;100.00;99295.91;5094005;27;20042;-74
2024/01/02 08:55:05;;;;;;;30.52;9.75;;;;;;;11.19;100.00;99293.22;5081555;27;20027;-74
2024/01/02 08:57:31;;;;;;;36.80;11.20;;;;;;;11.23;100.00;99299.97;5090995;27;20028;-74
2024/01/02 08:59:57;;;;;;;44.47;10.20;;;;;;;11.25;100.00;99295.38;5094460;27;20524;-74
2024/01/02 09:02:22;;;;;;;45.25;11.88;;;;;;;11.30;100.00;99306.47;5103874;27;20154;-73
2024/01/02 09:04:48;;;;;;;43.00;11.80;;;;;;;11.29;100.00;99296.75;5094781;27;20048;-74
2024/01/02 09:07:13;;;;;;;34.75;10.65;;;;;;;11.36;100.00;99295.22;5091975;27;20886;-74
2024/01/02 09:09:39;;;;;;;42.58;10.68;;;;;;;11.41;100.00;99298.31;5091037;27;20075;-74
2024/01/02 09:12:06;;;;;;;36.85;9.95;;;;;;;11.34;100.00;99294.50;5097546;27;25694;-73
2024/01/02 09:14:31;;;;;;;36.92;10.27;;;;;;;11.37;100.00;99284.41;5098321;27;20851;-74
2024/01/02 09:16:57;;;;;;;39.60;10.13;;;;;;;11.42;100.00;99281.31;5098840;27;20211;-74
2024/01/02 09:19:22;;;;;;;30.15;10.95;;;;;;;11.44;100.00;99284.66;5101501;27;20100;-74
2024/01/02 09:21:48;;;;;;;30.17;10.23;;;;;;;11.49;100.00;99277.06;5096626;27;20036;-73
2024/01/02 09:24:16;;;;;;;37.97;11.68;;;;;;;11.46;100.00;99274.72;5090648;27;20088;-74
2024/01/02 09:26:45;;;;;;;33.00;12.63;;;;;;;11.46;100.00;99272.03;5094118;27;20068;-74
2024/01/02 09:29:11;;;;;;;34.20;12.82;;;;;;;11.44;100.00;99274.00;5099722;27;20095;-74
2024/01/02 09:31:36;;;;;;;41.63;13.27;;;;;;;11.47;100.00;99275.56;5093638;27;20096;-74
2024/01/02 09:34:02;;;;;;;38.85;12.35;;;;;;;11.53;100.00;99272.31;5092630;27;20040;-75
2024/01/02 09:36:29;;;;;;;37.72;14.60;;;;;;;11.37;100.00;99273.72;5083054;27;20032;-74
2024/01/02 09:38:56;;;;;;;43.08;14.88;;;;;;;11.59;100.00;99269.06;5097804;27;20071;-74
2024/01/02 09:41:52;;;;;;;35.70;14.75;;;;;;;11.41;100.00;99259.13;5096304;27;20028;-74
2024/01/02 09:44:47;;;;;;;46.13;13.68;;;;;;;11.70;100.00;99258.25;5093297;27;20888;-73
2024/01/02 09:47:43;;;;;;;47.47;15.43;;;;;;;11.53;100.00;99262.47;5094185;27;20842;-74
2024/01/02 09:50:14;;;;;;;34.17;14.25;;;;;;;11.77;100.00;99256.69;5078707;27;20988;-74
2024/01/02 09:53:03;;;;;;;53.15;15.10;;;;;;;11.63;100.00;99263.31;5097586;27;20051;-73
2024/01/02 09:55:42;;;;;;;40.53;14.68;;;;;;;11.72;100.00;99252.75;5048664;27;20122;-73
2024/01/02 09:58:29;;;;;;;33.85;15.82;;;;;;;11.71;100.00;99243.91;5095993;27;20032;-74
2024/01/02 10:01:32;;;;;;;42.78;17.45;;;;;;;11.73;100.00;99252.59;5099774;27;20044;-74
2024/01/02 10:04:04;;;;;;;;;;;;;;;11.63;100.00;99241.94;5091683;27;20063;-74
2024/01/02 10:06:45;;;;;;;50.30;18.75;;;;;;;11.55;100.00;99249.84;5107875;27;19954;-74
2024/01/02 10:09:30;;;;;;;36.83;17.88;;;;;;;11.59;100.00;99247.72;5093736;27;20039;-74
2024/01/02 10:12:07;;;;;;;40.75;17.90;;;;;;;11.58;100.00;99254.03;5103190;27;20108;-74
2024/01/02 10:15:12;;;;;;;37.30;18.45;;;;;;;11.58;100.00;99267.38;5098408;27;20040;-74
2024/01/02 10:18:08;;;;;;;36.05;18.58;;;;;;;11.65;100.00;99253.34;5070460;27;20067;-74
2024/01/02 10:20:44;;;;;;;35.90;17.13;;;;;;;11.76;100.00;99265.69;5090078;27;20071;-74
2024/01/02 10:23:15;;;;;;;35.13;15.88;;;;;;;11.71;100.00;99257.25;5080544;27;20038;-73
2024/01/02 10:25:41;;;;;;;36.85;15.65;;;;;;;11.74;100.00;99242.75;5096991;27;20125;-74
2024/01/02 10:28:21;;;;;;;33.28;14.00;;;;;;;11.92;100.00;99246.41;5076128;27;20132;-73
2024/01/02 10:31:24;;;;;;;26.98;13.48;;;;;;;12.11;100.00;99235.66;5078264;27;20032;-74
2024/01/02 10:34:18;;;;;;;26.25;12.77;;;;;;;12.04;100.00;99225.69;5099607;27;20040;-73
2024/01/02 10:36:52;;;;;;;29.15;12.73;;;;;;;11.93;100.00;99216.88;5094019;27;20047;-74
2024/01/02 10:39:50;;;;;;;23.98;12.20;;;;;;;12.01;100.00;99208.16;5096447;27;20106;-74
2024/01/02 10:42:42;;;;;;;29.08;11.90;;;;;;;12.01;100.00;99220.66;5080804;27;20048;-74
2024/01/02 10:45:18;;;;;;;15.83;9.93;;;;;;;11.97;100.00;99209.41;5095208;27;20039;-74
2024/01/02 10:48:01;;;;;;;19.25;9.32;;;;;;;11.83;100.00;99202.72;5087056;27;20427;-74
2024/01/02 10:50:39;;;;;;;16.70;9.07;;;;;;;11.83;100.00;99208.06;5098531;27;20176;-74
2024/01/02 10:53:19;;;;;;;19.90;9.27;;;;;;;11.73;100.00;99225.91;5099079;27;20038;-74
2024/01/02 10:55:50;;;;;;;14.30;8.48;;;;;;;11.61;100.00;99227.06;5097989;27;20040;-74
2024/01/02 10:58:33;;;;;;;15.55;7.68;;;;;;;11.77;100.00;99237.16;5099846;27;20721;-74
2024/01/02 11:01:06;;;;;;;14.98;7.40;;;;;;;11.73;100.00;99225.06;5087864;27;20032;-75
2024/01/02 11:03:46;;;;;;;13.57;6.85;;;;;;;11.70;100.00;99214.66;5093711;27;20881;-74
2024/01/02 11:06:32;;;;;;;16.85;8.10;;;;;;;11.64;100.00;99216.91;5076803;28;20044;-74
2024/01/02 11:09:11;;;;;;;14.35;7.22;;;;;;;11.67;100.00;99219.31;5075697;27;20044;-74
2024/01/02 11:11:40;;;;;;;13.25;7.10;;;;;;;11.59;100.00;99218.34;5089923;27;20039;-73
2024/01/02 11:14:07;;;;;;;12.52;7.10;;;;;;;11.53;100.00;99229.59;5093552;27;20104;-73
2024/01/02 11:16:37;;;;;;;12.82;7.05;;;;;;;11.62;100.00;99215.41;5078078;27;20226;-72
2024/01/02 11:19:04;;;;;;;9.88;6.13;;;;;;;11.57;100.00;99226.50;5095016;27;20028;-73
2024/01/02 11:21:30;;;;;;;9.35;6.22;;;;;;;11.65;100.00;99223.13;5098916;27;20070;-73
2024/01/02 11:23:59;;;;;;;9.15;6.13;;;;;;;11.63;100.00;99225.91;5095592;27;20054;-74
2024/01/02 11:26:27;;;;;;;10.35;6.20;;;;;;;11.70;100.00;99214.66;5097156;27;20075;-73